sensor_id;sensor_type;location;lat;lon;timestamp;pressure;altitude;pressure_sealevel;temperature;humidity
76994;BME280;66749;47.406;18.822;2023-01-29T00:00:14;101191.03;;;0.54;84.81
76994;BME280;66749;47.406;18.822;2023-01-29T00:00:46;101190.16;;;0.54;85.09
76994;BME280;66749;47.406;18.822;2023-01-29T00:01:18;101188.44;;;0.51;85.05
76994;BME280;66749;47.406;18.822;2023-01-29T00:01:52;101192.75;;;0.54;85.44
76994;BME280;66749;47.406;18.822;2023-01-29T00:02:24;101190.16;;;0.52;85.52
76994;BME280;66749;47.406;18.822;2023-01-29T00:02:56;101185.88;;;0.54;84.75
76994;BME280;66749;47.406;18.822;2023-01-29T00:03:28;101191.00;;;0.58;85.32
76994;BME280;66749;47.406;18.822;2023-01-29T00:04:01;101186.75;;;0.55;84.63
76994;BME280;66749;47.406;18.822;2023-01-29T00:04:33;101194.44;;;0.55;85.15
76994;BME280;66749;47.406;18.822;2023-01-29T00:05:15;101190.16;;;0.55;85.21
76994;BME280;66749;47.406;18.822;2023-01-29T00:05:58;101198.72;;;0.53;85.29
76994;BME280;66749;47.406;18.822;2023-01-29T00:06:30;101187.59;;;0.51;85.02
76994;BME280;66749;47.406;18.822;2023-01-29T00:07:03;101190.16;;;0.49;85.71
76994;BME280;66749;47.406;18.822;2023-01-29T00:07:36;101188.44;;;0.51;85.82
76994;BME280;66749;47.406;18.822;2023-01-29T00:08:08;101193.56;;;0.51;85.25
76994;BME280;66749;47.406;18.822;2023-01-29T00:08:39;101194.44;;;0.50;85.26
76994;BME280;66749;47.406;18.822;2023-01-29T00:09:11;101191.88;;;0.53;85.79
76994;BME280;66749;47.406;18.822;2023-01-29T00:09:44;101186.72;;;0.52;85.50
76994;BME280;66749;47.406;18.822;2023-01-29T00:10:15;101194.44;;;0.55;85.12
76994;BME280;66749;47.406;18.822;2023-01-29T00:10:48;101192.72;;;0.55;84.88
76994;BME280;66749;47.406;18.822;2023-01-29T00:11:19;101191.88;;;0.57;85.60
76994;BME280;66749;47.406;18.822;2023-01-29T00:11:51;101195.28;;;0.51;85.16
76994;BME280;66749;47.406;18.822;2023-01-29T00:12:23;101193.59;;;0.54;85.18
76994;BME280;66749;47.406;18.822;2023-01-29T00:12:54;101191.88;;;0.55;85.07
76994;BME280;66749;47.406;18.822;2023-01-29T00:13:26;101191.88;;;0.53;85.48
76994;BME280;66749;47.406;18.822;2023-01-29T00:13:58;101190.13;;;0.59;84.93
76994;BME280;66749;47.406;18.822;2023-01-29T00:14:29;101195.28;;;0.62;85.47
76994;BME280;66749;47.406;18.822;2023-01-29T00:15:04;101197.84;;;0.59;85.35
76994;BME280;66749;47.406;18.822;2023-01-29T00:15:39;101195.28;;;0.62;85.46
76994;BME280;66749;47.406;18.822;2023-01-29T00:16:11;101197.84;;;0.63;84.57
76994;BME280;66749;47.406;18.822;2023-01-29T00:16:42;101200.44;;;0.62;84.71
76994;BME280;66749;47.406;18.822;2023-01-29T00:17:14;101198.69;;;0.64;84.63
76994;BME280;66749;47.406;18.822;2023-01-29T00:17:46;101194.41;;;0.66;85.12
76994;BME280;66749;47.406;18.822;2023-01-29T00:18:17;101200.41;;;0.69;84.66
76994;BME280;66749;47.406;18.822;2023-01-29T00:18:49;101194.41;;;0.67;85.05
76994;BME280;66749;47.406;18.822;2023-01-29T00:19:23;101194.41;;;0.69;84.60
76994;BME280;66749;47.406;18.822;2023-01-29T00:19:55;101207.25;;;0.70;84.87
76994;BME280;66749;47.406;18.822;2023-01-29T00:20:26;101199.53;;;0.73;84.33
76994;BME280;66749;47.406;18.822;2023-01-29T00:21:00;101196.97;;;0.72;84.49
76994;BME280;66749;47.406;18.822;2023-01-29T00:21:32;101197.84;;;0.69;84.54
76994;BME280;66749;47.406;18.822;2023-01-29T00:22:04;101201.25;;;0.70;84.58
76994;BME280;66749;47.406;18.822;2023-01-29T00:22:35;101201.22;;;0.74;84.65
76994;BME280;66749;47.406;18.822;2023-01-29T00:23:07;101201.22;;;0.74;84.33
76994;BME280;66749;47.406;18.822;2023-01-29T00:23:39;101203.81;;;0.76;84.23
76994;BME280;66749;47.406;18.822;2023-01-29T00:24:11;101202.94;;;0.74;84.16
76994;BME280;66749;47.406;18.822;2023-01-29T00:24:42;101205.50;;;0.75;84.60
76994;BME280;66749;47.406;18.822;2023-01-29T00:25:14;101203.81;;;0.73;84.23
76994;BME280;66749;47.406;18.822;2023-01-29T00:25:46;101199.53;;;0.70;83.96
76994;BME280;66749;47.406;18.822;2023-01-29T00:26:18;101203.84;;;0.68;84.39
76994;BME280;66749;47.406;18.822;2023-01-29T00:26:52;101204.66;;;0.67;84.43
76994;BME280;66749;47.406;18.822;2023-01-29T00:27:24;101208.97;;;0.64;84.26
76994;BME280;66749;47.406;18.822;2023-01-29T00:27:55;101209.81;;;0.66;84.71
76994;BME280;66749;47.406;18.822;2023-01-29T00:28:27;101214.09;;;0.59;84.30
76994;BME280;66749;47.406;18.822;2023-01-29T00:28:59;101210.69;;;0.55;84.59
76994;BME280;66749;47.406;18.822;2023-01-29T00:29:34;101217.53;;;0.58;84.29
76994;BME280;66749;47.406;18.822;2023-01-29T00:30:06;101216.69;;;0.56;85.04
76994;BME280;66749;47.406;18.822;2023-01-29T00:30:46;101212.41;;;0.55;84.25
76994;BME280;66749;47.406;18.822;2023-01-29T00:31:22;101213.28;;;0.55;84.98
76994;BME280;66749;47.406;18.822;2023-01-29T00:31:54;101214.13;;;0.61;84.35
76994;BME280;66749;47.406;18.822;2023-01-29T00:32:26;101216.69;;;0.62;84.55
76994;BME280;66749;47.406;18.822;2023-01-29T00:33:01;101217.53;;;0.60;84.46
76994;BME280;66749;47.406;18.822;2023-01-29T00:33:33;101214.13;;;0.58;84.69
76994;BME280;66749;47.406;18.822;2023-01-29T00:34:04;101217.53;;;0.60;84.81
76994;BME280;66749;47.406;18.822;2023-01-29T00:34:36;101218.41;;;0.57;84.61
76994;BME280;66749;47.406;18.822;2023-01-29T00:35:11;101218.41;;;0.54;84.81
76994;BME280;66749;47.406;18.822;2023-01-29T00:35:42;101217.56;;;0.55;84.50
76994;BME280;66749;47.406;18.822;2023-01-29T00:36:16;101216.69;;;0.54;84.90
76994;BME280;66749;47.406;18.822;2023-01-29T00:36:48;101222.69;;;0.53;84.53
76994;BME280;66749;47.406;18.822;2023-01-29T00:37:20;101225.25;;;0.53;84.77
76994;BME280;66749;47.406;18.822;2023-01-29T00:37:54;101223.56;;;0.54;84.31
76994;BME280;66749;47.406;18.822;2023-01-29T00:38:25;101217.56;;;0.55;85.01
76994;BME280;66749;47.406;18.822;2023-01-29T00:39:00;101220.97;;;0.55;84.67
76994;BME280;66749;47.406;18.822;2023-01-29T00:39:33;101221.81;;;0.50;84.28
76994;BME280;66749;47.406;18.822;2023-01-29T00:40:18;101220.13;;;0.49;84.41
76994;BME280;66749;47.406;18.822;2023-01-29T00:40:50;101220.13;;;0.53;84.64
76994;BME280;66749;47.406;18.822;2023-01-29T00:41:40;101220.97;;;0.49;85.05
76994;BME280;66749;47.406;18.822;2023-01-29T00:42:31;101220.13;;;0.53;84.33
76994;BME280;66749;47.406;18.822;2023-01-29T00:43:25;101219.25;;;0.51;84.37
76994;BME280;66749;47.406;18.822;2023-01-29T00:44:17;101222.69;;;0.50;84.57
76994;BME280;66749;47.406;18.822;2023-01-29T00:45:27;101223.56;;;0.48;84.94
76994;BME280;66749;47.406;18.822;2023-01-29T00:45:59;101217.53;;;0.50;84.88
76994;BME280;66749;47.406;18.822;2023-01-29T00:46:31;101222.69;;;0.49;84.38
76994;BME280;66749;47.406;18.822;2023-01-29T00:47:04;101221.81;;;0.50;84.89
76994;BME280;66749;47.406;18.822;2023-01-29T00:47:55;101219.28;;;0.48;84.31
76994;BME280;66749;47.406;18.822;2023-01-29T00:48:27;101221.81;;;0.45;84.21
76994;BME280;66749;47.406;18.822;2023-01-29T00:49:00;101220.97;;;0.49;84.69
76994;BME280;66749;47.406;18.822;2023-01-29T00:49:34;101220.13;;;0.47;84.65
76994;BME280;66749;47.406;18.822;2023-01-29T00:50:08;101223.53;;;0.43;84.34
76994;BME280;66749;47.406;18.822;2023-01-29T00:50:40;101222.69;;;0.44;84.56
76994;BME280;66749;47.406;18.822;2023-01-29T00:51:15;101225.25;;;0.47;84.39
76994;BME280;66749;47.406;18.822;2023-01-29T00:51:46;101225.25;;;0.47;84.21
76994;BME280;66749;47.406;18.822;2023-01-29T00:52:37;101225.25;;;0.47;84.78
76994;BME280;66749;47.406;18.822;2023-01-29T00:53:15;101222.69;;;0.44;84.29
76994;BME280;66749;47.406;18.822;2023-01-29T00:53:47;101233.84;;;0.46;84.26
76994;BME280;66749;47.406;18.822;2023-01-29T00:54:20;101224.41;;;0.42;84.22
76994;BME280;66749;47.406;18.822;2023-01-29T00:54:57;101221.84;;;0.44;84.38
76994;BME280;66749;47.406;18.822;2023-01-29T00:55:29;101231.25;;;0.43;84.67
76994;BME280;66749;47.406;18.822;2023-01-29T00:56:01;101228.69;;;0.42;84.38
76994;BME280;66749;47.406;18.822;2023-01-29T00:56:35;101232.97;;;0.43;84.50
76994;BME280;66749;47.406;18.822;2023-01-29T00:57:07;101223.53;;;0.45;84.70
76994;BME280;66749;47.406;18.822;2023-01-29T00:57:39;101233.81;;;0.43;84.64
76994;BME280;66749;47.406;18.822;2023-01-29T00:58:10;101233.81;;;0.37;84.71
76994;BME280;66749;47.406;18.822;2023-01-29T00:58:44;101227.84;;;0.41;84.40
76994;BME280;66749;47.406;18.822;2023-01-29T00:59:19;101232.13;;;0.39;84.80
76994;BME280;66749;47.406;18.822;2023-01-29T00:59:50;101226.97;;;0.36;84.28
76994;BME280;66749;47.406;18.822;2023-01-29T01:00:25;101228.69;;;0.37;84.46
76994;BME280;66749;47.406;18.822;2023-01-29T01:01:00;101232.13;;;0.39;85.12
76994;BME280;66749;47.406;18.822;2023-01-29T01:01:32;101218.44;;;0.39;84.43
76994;BME280;66749;47.406;18.822;2023-01-29T01:02:22;101226.13;;;0.36;84.70
76994;BME280;66749;47.406;18.822;2023-01-29T01:03:16;101219.28;;;0.36;84.74
76994;BME280;66749;47.406;18.822;2023-01-29T01:03:47;101219.28;;;0.36;84.45
76994;BME280;66749;47.406;18.822;2023-01-29T01:04:19;101223.53;;;0.37;84.75
76994;BME280;66749;47.406;18.822;2023-01-29T01:04:51;101215.84;;;0.37;84.59
76994;BME280;66749;47.406;18.822;2023-01-29T01:05:23;101221.84;;;0.33;84.21
76994;BME280;66749;47.406;18.822;2023-01-29T01:06:04;101229.56;;;0.33;84.42
76994;BME280;66749;47.406;18.822;2023-01-29T01:06:38;101220.16;;;0.32;84.55
76994;BME280;66749;47.406;18.822;2023-01-29T01:07:09;101218.44;;;0.31;85.14
76994;BME280;66749;47.406;18.822;2023-01-29T01:07:40;101220.97;;;0.30;84.37
76994;BME280;66749;47.406;18.822;2023-01-29T01:08:14;101220.13;;;0.29;84.33
76994;BME280;66749;47.406;18.822;2023-01-29T01:09:05;101221.00;;;0.34;85.03
76994;BME280;66749;47.406;18.822;2023-01-29T01:09:55;101211.56;;;0.30;84.95
76994;BME280;66749;47.406;18.822;2023-01-29T01:10:57;101218.44;;;0.31;84.24
76994;BME280;66749;47.406;18.822;2023-01-29T01:11:29;101213.31;;;0.31;84.82
76994;BME280;66749;47.406;18.822;2023-01-29T01:12:01;101214.13;;;0.30;84.76
76994;BME280;66749;47.406;18.822;2023-01-29T01:12:32;101216.72;;;0.25;85.10
76994;BME280;66749;47.406;18.822;2023-01-29T01:13:06;101220.16;;;0.26;84.88
76994;BME280;66749;47.406;18.822;2023-01-29T01:13:51;101216.72;;;0.22;84.65
76994;BME280;66749;47.406;18.822;2023-01-29T01:14:23;101217.59;;;0.26;85.23
76994;BME280;66749;47.406;18.822;2023-01-29T01:14:55;101215.88;;;0.25;84.88
76994;BME280;66749;47.406;18.822;2023-01-29T01:15:34;101211.59;;;0.27;84.62
76994;BME280;66749;47.406;18.822;2023-01-29T01:16:14;101216.72;;;0.27;84.97
76994;BME280;66749;47.406;18.822;2023-01-29T01:16:47;101211.56;;;0.22;85.04
76994;BME280;66749;47.406;18.822;2023-01-29T01:17:21;101213.28;;;0.20;84.41
76994;BME280;66749;47.406;18.822;2023-01-29T01:17:58;101208.16;;;0.20;84.85
76994;BME280;66749;47.406;18.822;2023-01-29T01:18:30;101210.72;;;0.22;84.61
76994;BME280;66749;47.406;18.822;2023-01-29T01:19:03;101217.59;;;0.24;84.93
76994;BME280;66749;47.406;18.822;2023-01-29T01:19:35;101215.88;;;0.25;84.89
76994;BME280;66749;47.406;18.822;2023-01-29T01:20:09;101217.59;;;0.23;84.88
76994;BME280;66749;47.406;18.822;2023-01-29T01:20:41;101210.72;;;0.22;84.63
76994;BME280;66749;47.406;18.822;2023-01-29T01:21:14;101211.59;;;0.19;84.39
76994;BME280;66749;47.406;18.822;2023-01-29T01:21:52;101213.31;;;0.19;84.67
76994;BME280;66749;47.406;18.822;2023-01-29T01:22:24;101217.59;;;0.23;84.56
76994;BME280;66749;47.406;18.822;2023-01-29T01:22:56;101212.47;;;0.23;84.65
76994;BME280;66749;47.406;18.822;2023-01-29T01:23:28;101216.72;;;0.22;84.83
76994;BME280;66749;47.406;18.822;2023-01-29T01:23:59;101214.16;;;0.21;84.53
76994;BME280;66749;47.406;18.822;2023-01-29T01:24:31;101215.88;;;0.19;84.42
76994;BME280;66749;47.406;18.822;2023-01-29T01:25:04;101214.16;;;0.19;84.72
76994;BME280;66749;47.406;18.822;2023-01-29T01:25:35;101217.56;;;0.20;84.56
76994;BME280;66749;47.406;18.822;2023-01-29T01:26:08;101218.44;;;0.20;84.56
76994;BME280;66749;47.406;18.822;2023-01-29T01:26:43;101217.59;;;0.18;84.72
76994;BME280;66749;47.406;18.822;2023-01-29T01:27:15;101221.84;;;0.15;84.58
76994;BME280;66749;47.406;18.822;2023-01-29T01:27:46;101217.56;;;0.14;84.93
76994;BME280;66749;47.406;18.822;2023-01-29T01:28:18;101222.72;;;0.12;84.84
76994;BME280;66749;47.406;18.822;2023-01-29T01:29:04;101217.56;;;0.14;85.02
76994;BME280;66749;47.406;18.822;2023-01-29T01:29:35;101221.88;;;0.16;85.00
76994;BME280;66749;47.406;18.822;2023-01-29T01:30:12;101221.03;;;0.16;85.31
76994;BME280;66749;47.406;18.822;2023-01-29T01:30:44;101224.41;;;0.15;85.48
76994;BME280;66749;47.406;18.822;2023-01-29T01:31:16;101218.44;;;0.11;85.52
76994;BME280;66749;47.406;18.822;2023-01-29T01:31:49;101221.88;;;0.09;85.38
76994;BME280;66749;47.406;18.822;2023-01-29T01:32:21;101221.88;;;0.10;86.04
76994;BME280;66749;47.406;18.822;2023-01-29T01:32:53;101223.56;;;0.17;85.59
76994;BME280;66749;47.406;18.822;2023-01-29T01:33:27;101226.16;;;0.16;85.30
76994;BME280;66749;47.406;18.822;2023-01-29T01:33:59;101218.44;;;0.13;85.92
76994;BME280;66749;47.406;18.822;2023-01-29T01:34:32;101217.56;;;0.14;85.45
76994;BME280;66749;47.406;18.822;2023-01-29T01:35:04;101226.16;;;0.16;85.82
76994;BME280;66749;47.406;18.822;2023-01-29T01:35:37;101221.88;;;0.18;85.59
76994;BME280;66749;47.406;18.822;2023-01-29T01:36:11;101225.28;;;0.17;85.37
76994;BME280;66749;47.406;18.822;2023-01-29T01:36:44;101220.16;;;0.17;85.83
76994;BME280;66749;47.406;18.822;2023-01-29T01:37:16;101226.13;;;0.22;85.05
76994;BME280;66749;47.406;18.822;2023-01-29T01:37:50;101221.84;;;0.19;85.16
76994;BME280;66749;47.406;18.822;2023-01-29T01:38:22;101217.56;;;0.20;85.45
76994;BME280;66749;47.406;18.822;2023-01-29T01:38:54;101221.03;;;0.16;85.91
76994;BME280;66749;47.406;18.822;2023-01-29T01:39:26;101221.84;;;0.19;85.96
76994;BME280;66749;47.406;18.822;2023-01-29T01:39:58;101220.16;;;0.23;85.53
76994;BME280;66749;47.406;18.822;2023-01-29T01:40:30;101222.72;;;0.23;85.01
76994;BME280;66749;47.406;18.822;2023-01-29T01:41:01;101227.00;;;0.27;84.85
76994;BME280;66749;47.406;18.822;2023-01-29T01:41:33;101227.00;;;0.27;84.62
76994;BME280;66749;47.406;18.822;2023-01-29T01:42:13;101221.84;;;0.25;85.27
76994;BME280;66749;47.406;18.822;2023-01-29T01:42:54;101231.25;;;0.22;84.90
76994;BME280;66749;47.406;18.822;2023-01-29T01:43:26;101232.09;;;0.22;84.77
76994;BME280;66749;47.406;18.822;2023-01-29T01:44:00;101236.41;;;0.25;84.99
76994;BME280;66749;47.406;18.822;2023-01-29T01:44:58;101234.69;;;0.18;85.16
76994;BME280;66749;47.406;18.822;2023-01-29T01:45:35;101231.28;;;0.16;85.20
76994;BME280;66749;47.406;18.822;2023-01-29T01:46:07;101233.84;;;0.10;85.40
76994;BME280;66749;47.406;18.822;2023-01-29T01:46:42;101228.69;;;0.13;85.39
76994;BME280;66749;47.406;18.822;2023-01-29T01:47:15;101232.97;;;0.20;85.21
76994;BME280;66749;47.406;18.822;2023-01-29T01:48:46;101240.66;;;0.14;85.37
76994;BME280;66749;47.406;18.822;2023-01-29T01:49:20;101235.56;;;0.17;84.84
76994;BME280;66749;47.406;18.822;2023-01-29T01:49:54;101238.09;;;0.20;85.26
76994;BME280;66749;47.406;18.822;2023-01-29T01:50:32;101239.81;;;0.21;85.42
76994;BME280;66749;47.406;18.822;2023-01-29T01:51:07;101244.94;;;0.19;84.81
76994;BME280;66749;47.406;18.822;2023-01-29T01:51:42;101243.25;;;0.24;84.69
76994;BME280;66749;47.406;18.822;2023-01-29T01:52:16;101240.69;;;0.24;84.41
76994;BME280;66749;47.406;18.822;2023-01-29T01:52:54;101244.13;;;0.23;85.08
76994;BME280;66749;47.406;18.822;2023-01-29T01:53:36;101238.13;;;0.24;85.08
76994;BME280;66749;47.406;18.822;2023-01-29T01:54:17;101243.22;;;0.29;84.54
76994;BME280;66749;47.406;18.822;2023-01-29T01:54:51;101240.69;;;0.32;84.42
76994;BME280;66749;47.406;18.822;2023-01-29T01:55:25;101238.97;;;0.31;84.60
76994;BME280;66749;47.406;18.822;2023-01-29T01:56:02;101238.97;;;0.31;84.28
76994;BME280;66749;47.406;18.822;2023-01-29T01:56:41;101243.25;;;0.32;84.63
76994;BME280;66749;47.406;18.822;2023-01-29T01:57:20;101239.81;;;0.33;84.48
76994;BME280;66749;47.406;18.822;2023-01-29T01:58:07;101246.66;;;0.33;84.01
76994;BME280;66749;47.406;18.822;2023-01-29T01:58:44;101242.41;;;0.32;84.28
76994;BME280;66749;47.406;18.822;2023-01-29T01:59:21;101239.81;;;0.30;84.35
76994;BME280;66749;47.406;18.822;2023-01-29T01:59:59;101244.09;;;0.31;84.85
76994;BME280;66749;47.406;18.822;2023-01-29T02:00:42;101244.09;;;0.30;84.37
76994;BME280;66749;47.406;18.822;2023-01-29T02:01:14;101233.81;;;0.28;84.37
76994;BME280;66749;47.406;18.822;2023-01-29T02:01:49;101241.53;;;0.30;84.27
76994;BME280;66749;47.406;18.822;2023-01-29T02:02:21;101241.53;;;0.28;84.74
76994;BME280;66749;47.406;18.822;2023-01-29T02:03:12;101236.38;;;0.30;84.81
76994;BME280;66749;47.406;18.822;2023-01-29T02:04:28;101239.81;;;0.27;84.40
76994;BME280;66749;47.406;18.822;2023-01-29T02:05:21;101242.38;;;0.28;84.46
76994;BME280;66749;47.406;18.822;2023-01-29T02:06:11;101241.53;;;0.25;85.13
76994;BME280;66749;47.406;18.822;2023-01-29T02:07:05;101243.25;;;0.26;84.78
76994;BME280;66749;47.406;18.822;2023-01-29T02:07:57;101236.41;;;0.26;84.37
76994;BME280;66749;47.406;18.822;2023-01-29T02:08:54;101236.41;;;0.31;84.66
76994;BME280;66749;47.406;18.822;2023-01-29T02:09:51;101244.09;;;0.34;84.63
76994;BME280;66749;47.406;18.822;2023-01-29T02:10:26;101248.38;;;0.32;84.04
76994;BME280;66749;47.406;18.822;2023-01-29T02:11:00;101245.81;;;0.31;83.99
76994;BME280;66749;47.406;18.822;2023-01-29T02:11:32;101247.53;;;0.32;84.04
76994;BME280;66749;47.406;18.822;2023-01-29T02:12:07;101248.38;;;0.31;83.93
76994;BME280;66749;47.406;18.822;2023-01-29T02:12:40;101245.81;;;0.31;83.69
76994;BME280;66749;47.406;18.822;2023-01-29T02:13:14;101242.41;;;0.32;84.33
76994;BME280;66749;47.406;18.822;2023-01-29T02:13:51;101244.97;;;0.32;84.46
76994;BME280;66749;47.406;18.822;2023-01-29T02:14:24;101249.25;;;0.31;84.47
76994;BME280;66749;47.406;18.822;2023-01-29T02:14:55;101244.09;;;0.33;84.02
76994;BME280;66749;47.406;18.822;2023-01-29T02:15:27;101249.22;;;0.34;84.43
76994;BME280;66749;47.406;18.822;2023-01-29T02:16:00;101246.66;;;0.30;84.23
76994;BME280;66749;47.406;18.822;2023-01-29T02:16:34;101244.94;;;0.28;84.20
76994;BME280;66749;47.406;18.822;2023-01-29T02:17:12;101252.66;;;0.25;84.25
76994;BME280;66749;47.406;18.822;2023-01-29T02:17:44;101248.38;;;0.26;84.17
76994;BME280;66749;47.406;18.822;2023-01-29T02:18:21;101246.66;;;0.28;84.51
76994;BME280;66749;47.406;18.822;2023-01-29T02:18:53;101250.09;;;0.28;83.81
76994;BME280;66749;47.406;18.822;2023-01-29T02:20:33;101247.50;;;0.28;84.67
76994;BME280;66749;47.406;18.822;2023-01-29T02:23:07;101244.94;;;0.28;83.95
76994;BME280;66749;47.406;18.822;2023-01-29T02:25:46;101252.66;;;0.28;84.21
76994;BME280;66749;47.406;18.822;2023-01-29T02:26:13;101248.38;;;0.29;83.80
76994;BME280;66749;47.406;18.822;2023-01-29T02:27:01;101253.50;;;0.29;84.62
76994;BME280;66749;47.406;18.822;2023-01-29T02:28:00;101253.50;;;0.26;83.99
76994;BME280;66749;47.406;18.822;2023-01-29T02:33:36;101259.50;;;0.22;84.44
76994;BME280;66749;47.406;18.822;2023-01-29T02:35:09;101262.06;;;0.20;84.39
76994;BME280;66749;47.406;18.822;2023-01-29T02:37:00;101255.22;;;0.18;84.39
76994;BME280;66749;47.406;18.822;2023-01-29T02:41:40;101256.91;;;0.22;84.02
76994;BME280;66749;47.406;18.822;2023-01-29T02:42:52;101257.78;;;0.21;84.00
76994;BME280;66749;47.406;18.822;2023-01-29T02:43:47;101262.91;;;0.22;84.67
76994;BME280;66749;47.406;18.822;2023-01-29T02:44:41;101264.66;;;0.23;84.38
76994;BME280;66749;47.406;18.822;2023-01-29T02:45:34;101262.91;;;0.22;84.24
76994;BME280;66749;47.406;18.822;2023-01-29T02:46:17;101267.22;;;0.25;84.88
76994;BME280;66749;47.406;18.822;2023-01-29T02:47:01;101267.19;;;0.26;84.52
76994;BME280;66749;47.406;18.822;2023-01-29T02:47:48;101262.06;;;0.25;84.57
76994;BME280;66749;47.406;18.822;2023-01-29T02:48:24;101264.63;;;0.25;83.90
76994;BME280;66749;47.406;18.822;2023-01-29T02:49:17;101259.50;;;0.22;84.60
76994;BME280;66749;47.406;18.822;2023-01-29T02:50:05;101266.34;;;0.21;84.87
76994;BME280;66749;47.406;18.822;2023-01-29T02:51:40;101264.66;;;0.23;84.03
76994;BME280;66749;47.406;18.822;2023-01-29T02:52:25;101264.63;;;0.22;84.78
76994;BME280;66749;47.406;18.822;2023-01-29T02:53:16;101268.91;;;0.26;84.28
76994;BME280;66749;47.406;18.822;2023-01-29T02:56:16;101269.75;;;0.30;84.33
76994;BME280;66749;47.406;18.822;2023-01-29T02:56:58;101274.03;;;0.29;85.17
76994;BME280;66749;47.406;18.822;2023-01-29T02:57:34;101266.34;;;0.31;84.17
76994;BME280;66749;47.406;18.822;2023-01-29T02:58:31;101274.91;;;0.33;84.87
76994;BME280;66749;47.406;18.822;2023-01-29T02:59:11;101270.63;;;0.33;84.06
76994;BME280;66749;47.406;18.822;2023-01-29T02:59:59;101270.63;;;0.33;84.55
76994;BME280;66749;47.406;18.822;2023-01-29T03:00:38;101268.91;;;0.35;84.56
76994;BME280;66749;47.406;18.822;2023-01-29T03:01:19;101275.75;;;0.38;84.08
76994;BME280;66749;47.406;18.822;2023-01-29T03:01:57;101274.03;;;0.35;84.45
76994;BME280;66749;47.406;18.822;2023-01-29T03:02:41;101268.06;;;0.35;83.80
76994;BME280;66749;47.406;18.822;2023-01-29T03:03:26;101272.31;;;0.37;84.28
76994;BME280;66749;47.406;18.822;2023-01-29T03:04:07;101274.06;;;0.38;83.91
76994;BME280;66749;47.406;18.822;2023-01-29T03:04:47;101271.47;;;0.37;84.27
76994;BME280;66749;47.406;18.822;2023-01-29T03:05:34;101281.75;;;0.37;83.92
76994;BME280;66749;47.406;18.822;2023-01-29T03:07:06;101283.44;;;0.42;83.89
76994;BME280;66749;47.406;18.822;2023-01-29T03:07:48;101277.47;;;0.42;83.90
76994;BME280;66749;47.406;18.822;2023-01-29T03:08:33;101272.31;;;0.43;83.62
76994;BME280;66749;47.406;18.822;2023-01-29T03:09:21;101274.03;;;0.44;84.31
76994;BME280;66749;47.406;18.822;2023-01-29T03:09:55;101276.59;;;0.43;84.30
76994;BME280;66749;47.406;18.822;2023-01-29T03:10:43;101277.47;;;0.40;84.27
76994;BME280;66749;47.406;18.822;2023-01-29T03:11:19;101275.75;;;0.45;84.11
76994;BME280;66749;47.406;18.822;2023-01-29T03:11:55;101273.19;;;0.48;83.70
76994;BME280;66749;47.406;18.822;2023-01-29T03:12:32;101278.31;;;0.48;83.38
76994;BME280;66749;47.406;18.822;2023-01-29T03:13:14;101275.75;;;0.45;83.74
76994;BME280;66749;47.406;18.822;2023-01-29T03:13:56;101276.59;;;0.50;83.76
76994;BME280;66749;47.406;18.822;2023-01-29T03:14:36;101279.19;;;0.47;83.85
76994;BME280;66749;47.406;18.822;2023-01-29T03:15:42;101276.59;;;0.44;83.84
76994;BME280;66749;47.406;18.822;2023-01-29T03:17:15;101272.31;;;0.52;84.03
76994;BME280;66749;47.406;18.822;2023-01-29T03:17:53;101272.31;;;0.51;83.97
76994;BME280;66749;47.406;18.822;2023-01-29T03:18:31;101271.47;;;0.50;83.31
76994;BME280;66749;47.406;18.822;2023-01-29T03:19:45;101277.47;;;0.51;83.48
76994;BME280;66749;47.406;18.822;2023-01-29T03:20:22;101268.06;;;0.53;83.91
76994;BME280;66749;47.406;18.822;2023-01-29T03:21:02;101277.47;;;0.54;83.82
76994;BME280;66749;47.406;18.822;2023-01-29T03:21:59;101277.47;;;0.49;83.73
76994;BME280;66749;47.406;18.822;2023-01-29T03:22:35;101280.88;;;0.50;83.42
76994;BME280;66749;47.406;18.822;2023-01-29T03:23:17;101277.47;;;0.51;84.05
76994;BME280;66749;47.406;18.822;2023-01-29T03:23:58;101283.47;;;0.54;84.02
76994;BME280;66749;47.406;18.822;2023-01-29T03:24:54;101284.31;;;0.57;83.35
76994;BME280;66749;47.406;18.822;2023-01-29T03:25:46;101282.59;;;0.59;83.36
76994;BME280;66749;47.406;18.822;2023-01-29T03:26:36;101284.28;;;0.60;83.44
76994;BME280;66749;47.406;18.822;2023-01-29T03:27:54;101285.16;;;0.59;83.03
76994;BME280;66749;47.406;18.822;2023-01-29T03:28:44;101291.16;;;0.61;83.41
76994;BME280;66749;47.406;18.822;2023-01-29T03:29:37;101284.31;;;0.63;82.89
76994;BME280;66749;47.406;18.822;2023-01-29T03:30:35;101282.59;;;0.65;83.16
76994;BME280;66749;47.406;18.822;2023-01-29T03:31:28;101285.16;;;0.63;83.37
76994;BME280;66749;47.406;18.822;2023-01-29T03:32:22;101282.59;;;0.62;83.08
76994;BME280;66749;47.406;18.822;2023-01-29T03:33:04;101283.44;;;0.62;82.94
76994;BME280;66749;47.406;18.822;2023-01-29T03:33:46;101282.59;;;0.62;83.34
76994;BME280;66749;47.406;18.822;2023-01-29T03:34:22;101285.16;;;0.59;83.15
76994;BME280;66749;47.406;18.822;2023-01-29T03:35:04;101289.44;;;0.63;83.49
76994;BME280;66749;47.406;18.822;2023-01-29T03:35:42;101289.44;;;0.63;82.88
76994;BME280;66749;47.406;18.822;2023-01-29T03:36:50;101286.88;;;0.64;83.04
76994;BME280;66749;47.406;18.822;2023-01-29T03:37:26;101292.00;;;0.64;82.97
76994;BME280;66749;47.406;18.822;2023-01-29T03:38:04;101291.16;;;0.64;83.28
76994;BME280;66749;47.406;18.822;2023-01-29T03:38:40;101295.41;;;0.66;83.56
76994;BME280;66749;47.406;18.822;2023-01-29T03:39:14;101286.84;;;0.66;83.27
76994;BME280;66749;47.406;18.822;2023-01-29T03:39:47;101294.59;;;0.69;82.81
76994;BME280;66749;47.406;18.822;2023-01-29T03:40:19;101296.28;;;0.65;83.45